Terminal Aerodrome Forecast
Issued by NWS Cleveland, OH

Home | Current Version | Previous Version | Graphics & Text | Print | Product List | Glossary On
Versions: 1 2 3 4 5 6 7 8 9 10 11 12 13 14 15 16 17 18 19 20 21 22 23 24 25 26 27 28 29 30 31 32 33 34 35 36 37 38
976
FTUS41 KCLE 082033 AAB
TAFCLE
TAF AMD
KCLE 082033Z 0821/0924 28007KT 1 1/2SM -SN BR OVC003
      TEMPO 0821/0823 3/4SM -SN BR OVC008
     FM082300 28004KT 2SM -SN BR OVC008
     FM090200 25006KT 5SM BR OVC008
      TEMPO 0909/0913 3SM -SN OVC003
     FM091600 28012KT 6SM -SHSN OVC025=

USA.gov is the U.S. government's official web portal to all federal, state and local government web resources and services.